Time;durP1;ratioP1;P1;durP2;ratioP2;P2;SDS_P1;SDS_P2;PMS_P1;PMS_P2;Temp;Humidity;BMP_temperature;BMP_pressure;BME280_temperature;BME280_humidity;BME280_pressure;Samples;Min_cycle;Max_cycle;Signal;HPM_P1;HPM_P2
2022/11/18 00:00:42;;;;;;;3.00;2.00;;;7.40;99.90;;;;;;4128043;28;20186;-66
2022/11/18 00:02:42;;;;;;;1.90;1.70;;;7.50;99.90;;;;;;4128302;28;20456;-67
2022/11/18 00:04:43;;;;;;;3.10;2.13;;;7.40;99.90;;;;;;4129051;28;20252;-69
2022/11/18 00:06:44;;;;;;;2.37;1.73;;;7.40;99.90;;;;;;4127974;28;20190;-67
2022/11/18 00:08:45;;;;;;;2.73;2.00;;;7.50;99.90;;;;;;4129074;28;20650;-69
2022/11/18 00:10:45;;;;;;;3.17;1.77;;;7.60;99.90;;;;;;4127932;28;20222;-67
2022/11/18 00:15:05;;;;;;;2.33;1.90;;;7.80;99.90;;;;;;4131908;28;20201;-67
2022/11/18 00:17:07;;;;;;;2.17;1.70;;;7.80;99.90;;;;;;4114791;28;20897;-68
2022/11/18 00:19:07;;;;;;;2.30;1.90;;;7.70;99.90;;;;;;4130893;28;20430;-67
2022/11/18 00:21:10;;;;;;;2.43;2.00;;;7.80;99.90;;;;;;4130909;28;20492;-66
2022/11/18 00:23:11;;;;;;;3.33;2.00;;;7.90;99.90;;;;;;4131637;28;20214;-66
2022/11/18 00:25:12;;;;;;;1.70;1.50;;;7.90;99.90;;;;;;4130958;28;20484;-68
2022/11/18 00:27:12;;;;;;;3.10;1.70;;;7.90;99.90;;;;;;4130955;28;20197;-67
2022/11/18 00:29:13;;;;;;;1.30;1.20;;;7.90;99.90;;;;;;4130371;28;20225;-68
2022/11/18 00:31:14;;;;;;;1.90;1.37;;;7.90;99.90;;;;;;4115424;28;20234;-68
2022/11/18 00:33:14;;;;;;;2.87;1.80;;;7.90;99.90;;;;;;4130947;28;20268;-69
2022/11/18 00:35:15;;;;;;;2.90;2.17;;;7.80;99.90;;;;;;4132734;28;20183;-68
2022/11/18 00:37:16;;;;;;;3.73;2.00;;;7.70;99.90;;;;;;4130641;28;20178;-68
2022/11/18 00:39:18;;;;;;;2.43;2.00;;;7.80;99.90;;;;;;4132272;28;20215;-67
2022/11/18 00:41:19;;;;;;;2.63;2.00;;;7.80;99.90;;;;;;4132846;28;20232;-68
2022/11/18 00:43:20;;;;;;;2.93;1.70;;;7.70;99.90;;;;;;4114554;28;20874;-68
2022/11/18 00:45:22;;;;;;;2.20;2.00;;;7.80;99.90;;;;;;4132728;28;20561;-68
2022/11/18 00:47:23;;;;;;;3.13;2.10;;;7.80;99.90;;;;;;4132920;28;20190;-68
2022/11/18 00:49:23;;;;;;;2.17;1.47;;;7.80;99.90;;;;;;4131215;28;20571;-67
2022/11/18 00:51:24;;;;;;;4.67;2.13;;;7.80;99.90;;;;;;4132480;28;20190;-68
2022/11/18 00:53:26;;;;;;;1.80;1.30;;;7.90;99.90;;;;;;4132107;28;20210;-67
2022/11/18 00:55:26;;;;;;;4.87;1.50;;;7.60;99.90;;;;;;4132526;28;20553;-68
2022/11/18 00:57:27;;;;;;;1.10;1.00;;;7.60;99.90;;;;;;4131275;28;20522;-67
2022/11/18 00:59:28;;;;;;;1.63;1.20;;;7.60;99.90;;;;;;4132505;28;20237;-68
2022/11/18 01:01:28;;;;;;;1.07;0.90;;;7.60;99.90;;;;;;4131399;28;20183;-67
2022/11/18 01:03:29;;;;;;;1.83;0.83;;;7.70;99.90;;;;;;4130265;28;20221;-68
2022/11/18 01:05:30;;;;;;;0.80;0.70;;;7.70;99.90;;;;;;4132832;28;20189;-68
2022/11/18 01:07:31;;;;;;;1.20;0.80;;;7.80;99.90;;;;;;4139509;28;20187;-68
2022/11/18 01:09:31;;;;;;;0.90;0.80;;;7.80;99.90;;;;;;4134126;28;20666;-67
2022/11/18 01:13:52;;;;;;;0.80;0.70;;;7.70;99.90;;;;;;4130680;28;20293;-68
2022/11/18 01:15:56;;;;;;;0.80;0.80;;;7.80;99.90;;;;;;4132522;28;20499;-68
2022/11/18 01:17:56;;;;;;;1.57;1.47;;;7.90;99.90;;;;;;4131101;28;20459;-68
2022/11/18 01:19:58;;;;;;;0.50;0.50;;;8.00;99.90;;;;;;4131496;28;20241;-68
2022/11/18 01:22:01;;;;;;;0.70;0.70;;;7.90;99.90;;;;;;4131202;28;20190;-67
2022/11/18 01:24:02;;;;;;;3.23;0.63;;;7.70;99.90;;;;;;4131779;28;20202;-67
2022/11/18 01:26:12;;;;;;;2.00;0.70;;;7.70;99.90;;;;;;4114261;28;20674;-67
2022/11/18 01:28:15;;;;;;;1.80;0.73;;;7.80;99.90;;;;;;4132300;28;20183;-67
2022/11/18 01:30:16;;;;;;;3.83;2.67;;;7.70;99.90;;;;;;4130956;28;20496;-67
2022/11/18 01:32:17;;;;;;;3.77;2.80;;;7.70;99.90;;;;;;4132133;28;20210;-68
2022/11/18 01:34:18;;;;;;;1.33;1.00;;;7.60;99.90;;;;;;4131257;28;20194;-68
2022/11/18 01:36:26;;;;;;;2.87;0.70;;;7.60;99.90;;;;;;4130792;28;20179;-67
2022/11/18 01:38:27;;;;;;;0.60;0.60;;;7.70;99.90;;;;;;4131821;28;20680;-68
2022/11/18 01:40:28;;;;;;;0.57;0.57;;;7.70;99.90;;;;;;4130467;28;20421;-67
2022/11/18 01:42:29;;;;;;;1.07;0.67;;;7.70;99.90;;;;;;4131765;28;20189;-68
2022/11/18 01:45:09;;;;;;;0.60;0.60;;;7.70;99.90;;;;;;4131342;28;20198;-68
2022/11/18 01:47:11;;;;;;;1.13;0.70;;;7.70;99.90;;;;;;4131980;28;20191;-67
2022/11/18 01:49:13;;;;;;;1.37;0.80;;;7.60;99.90;;;;;;4130399;28;20916;-67
2022/11/18 01:51:17;;;;;;;1.80;0.93;;;7.60;99.90;;;;;;4131868;28;20433;-68
2022/11/18 01:53:24;;;;;;;1.67;0.80;;;7.60;99.90;;;;;;4127844;28;20216;-68
2022/11/18 01:55:28;;;;;;;0.70;0.70;;;7.70;99.90;;;;;;4115505;28;20426;-67
2022/11/18 01:57:31;;;;;;;0.70;0.70;;;7.80;99.90;;;;;;4114454;28;20428;-68
2022/11/18 01:59:35;;;;;;;1.20;0.90;;;7.80;99.90;;;;;;4115408;28;20179;-68
2022/11/18 02:01:36;;;;;;;1.20;0.60;;;7.70;99.90;;;;;;4114363;28;20183;-68
2022/11/18 02:03:37;;;;;;;2.17;1.00;;;7.70;99.90;;;;;;4114623;28;20211;-67
2022/11/18 02:05:39;;;;;;;1.37;0.80;;;7.40;99.90;;;;;;4113987;28;20197;-68
2022/11/18 02:07:42;;;;;;;1.03;0.70;;;7.20;99.90;;;;;;4130208;28;20791;-68
2022/11/18 02:09:43;;;;;;;0.93;0.70;;;7.30;99.90;;;;;;4130135;28;20426;-67
2022/11/18 02:11:49;;;;;;;0.67;0.67;;;7.20;99.90;;;;;;4130247;28;20429;-68
2022/11/18 02:13:50;;;;;;;1.77;0.70;;;7.40;99.90;;;;;;4130816;28;20650;-67
2022/11/18 02:16:14;;;;;;;1.37;1.00;;;7.40;99.90;;;;;;4131201;28;20444;-68
2022/11/18 02:18:33;;;;;;;0.50;0.50;;;7.40;99.90;;;;;;4113695;28;20206;-68
2022/11/18 02:20:45;;;;;;;0.43;0.43;;;7.40;99.90;;;;;;4129841;28;20193;-68
2022/11/18 02:23:35;;;;;;;1.37;0.43;;;7.30;99.90;;;;;;4129398;28;20432;-69
2022/11/18 02:26:09;;;;;;;1.20;0.80;;;7.30;99.90;;;;;;4131139;28;20421;-67
2022/11/18 02:29:07;;;;;;;0.30;0.30;;;7.10;99.90;;;;;;4129908;28;20485;-67
2022/11/18 02:31:23;;;;;;;0.30;0.30;;;6.80;99.90;;;;;;4129473;28;20170;-68
2022/11/18 02:33:55;;;;;;;0.40;0.30;;;6.60;99.90;;;;;;4129370;28;20213;-68
2022/11/18 02:36:11;;;;;;;1.67;1.67;;;6.60;99.90;;;;;;4121186;28;20426;-67
2022/11/18 02:38:30;;;;;;;0.40;0.40;;;6.60;99.90;;;;;;4129303;28;20938;-67
2022/11/18 02:41:16;;;;;;;0.30;0.30;;;6.50;99.90;;;;;;4129725;28;20502;-67
2022/11/18 02:43:27;;;;;;;0.30;0.30;;;6.50;99.90;;;;;;4108514;28;21085;-68
2022/11/18 02:45:30;;;;;;;0.40;0.40;;;6.30;99.90;;;;;;4129785;28;20516;-67
2022/11/18 02:47:32;;;;;;;1.43;0.40;;;6.30;99.90;;;;;;4129472;28;20429;-68
2022/11/18 02:49:58;;;;;;;0.40;0.40;;;6.30;99.90;;;;;;4113469;28;21138;-67
2022/11/18 02:52:00;;;;;;;0.30;0.30;;;6.40;99.90;;;;;;4129280;28;20418;-68
2022/11/18 02:54:07;;;;;;;0.87;0.87;;;6.30;99.90;;;;;;4129097;28;20854;-67
2022/11/18 02:56:09;;;;;;;0.40;0.40;;;6.30;99.90;;;;;;4113536;28;20448;-67
2022/11/18 02:58:11;;;;;;;0.90;0.50;;;6.20;99.90;;;;;;4129579;28;20449;-66
2022/11/18 03:00:13;;;;;;;0.33;0.33;;;6.20;99.90;;;;;;4129381;28;20855;-67
2022/11/18 03:02:19;;;;;;;0.67;0.67;;;6.20;99.90;;;;;;4130453;28;20456;-67
2022/11/18 03:04:21;;;;;;;1.27;1.20;;;6.10;99.90;;;;;;4128390;28;20449;-67
2022/11/18 03:06:37;;;;;;;1.23;0.40;;;6.10;99.90;;;;;;4129341;28;20496;-68
2022/11/18 03:08:46;;;;;;;1.23;0.40;;;6.00;99.90;;;;;;4129169;28;20866;-68
2022/11/18 03:11:02;;;;;;;0.40;0.40;;;5.90;99.90;;;;;;4136059;28;20932;-68
2022/11/18 03:13:40;;;;;;;0.67;0.67;;;5.90;99.90;;;;;;4133074;28;20579;-68
2022/11/18 03:16:03;;;;;;;0.33;0.33;;;5.80;99.90;;;;;;4129157;28;20441;-68
2022/11/18 03:18:18;;;;;;;0.30;0.30;;;5.90;99.90;;;;;;4128947;28;20434;-68
2022/11/18 03:20:28;;;;;;;0.30;0.30;;;5.80;99.90;;;;;;4128970;28;20812;-67
2022/11/18 03:22:43;;;;;;;0.30;0.30;;;5.80;99.90;;;;;;4129126;28;20826;-68
2022/11/18 03:24:55;;;;;;;0.60;0.60;;;5.80;99.90;;;;;;4129330;28;20433;-68
2022/11/18 03:27:26;;;;;;;0.30;0.30;;;5.70;99.90;;;;;;4129029;28;20453;-68
2022/11/18 03:29:35;;;;;;;0.20;0.20;;;5.60;99.90;;;;;;4128242;28;20446;-68
2022/11/18 03:31:44;;;;;;;0.30;0.30;;;5.60;99.90;;;;;;4130091;28;20425;-68
2022/11/18 03:34:01;;;;;;;0.30;0.30;;;5.50;99.90;;;;;;4127956;28;20558;-68
2022/11/18 03:36:06;;;;;;;0.30;0.30;;;5.60;99.90;;;;;;4112584;28;20939;-68
2022/11/18 03:38:28;;;;;;;0.30;0.30;;;5.50;99.90;;;;;;4112901;28;20477;-68
2022/11/18 03:40:31;;;;;;;0.90;0.90;;;5.60;99.90;;;;;;4128535;28;20841;-68
2022/11/18 03:42:39;;;;;;;0.30;0.30;;;5.60;99.90;;;;;;4128547;28;20979;-68
2022/11/18 03:44:46;;;;;;;0.73;0.73;;;5.50;99.90;;;;;;4128652;28;20467;-68
2022/11/18 03:46:52;;;;;;;0.30;0.30;;;5.40;99.90;;;;;;4128662;28;20422;-68
2022/11/18 03:48:55;;;;;;;0.87;0.60;;;5.30;99.90;;;;;;4128461;28;20437;-68
2022/11/18 03:51:05;;;;;;;0.80;0.80;;;5.30;99.90;;;;;;4128703;28;20435;-68
2022/11/18 03:53:07;;;;;;;0.30;0.30;;;5.20;99.90;;;;;;4127843;28;20473;-67
2022/11/18 03:55:32;;;;;;;0.30;0.30;;;5.20;99.90;;;;;;4129198;28;20433;-68
2022/11/18 03:58:02;;;;;;;0.50;0.50;;;5.10;99.90;;;;;;4128793;28;20441;-67
2022/11/18 04:00:12;;;;;;;0.70;0.70;;;5.10;99.90;;;;;;4110608;28;20435;-68
2022/11/18 04:02:18;;;;;;;0.30;0.30;;;5.20;99.90;;;;;;4115356;28;20448;-68
2022/11/18 04:04:19;;;;;;;0.30;0.30;;;5.30;99.90;;;;;;4111981;28;20450;-68
2022/11/18 04:06:36;;;;;;;0.30;0.30;;;5.30;99.90;;;;;;4120492;28;20434;-68
2022/11/18 04:08:39;;;;;;;0.30;0.30;;;5.50;99.90;;;;;;4128874;28;20530;-68
2022/11/18 04:10:49;;;;;;;0.40;0.40;;;5.60;99.90;;;;;;4128600;28;20466;-67
2022/11/18 04:13:01;;;;;;;0.30;0.30;;;5.50;99.90;;;;;;4127652;28;20551;-67
2022/11/18 04:15:02;;;;;;;0.30;0.30;;;5.40;99.90;;;;;;4128753;28;20545;-67
2022/11/18 04:17:13;;;;;;;0.57;0.57;;;5.50;99.90;;;;;;4128402;28;20892;-68
2022/11/18 04:19:14;;;;;;;1.33;0.40;;;5.50;99.90;;;;;;4128549;28;20433;-68
2022/11/18 04:21:15;;;;;;;0.40;0.40;;;5.60;99.90;;;;;;4129621;28;20436;-68
2022/11/18 04:23:16;;;;;;;0.30;0.30;;;5.90;99.90;;;;;;4127391;28;20284;-68
2022/11/18 04:25:16;;;;;;;0.40;0.40;;;6.00;99.90;;;;;;4129675;28;20214;-68
2022/11/18 04:27:17;;;;;;;0.60;0.60;;;6.00;99.90;;;;;;4112375;28;20194;-68
2022/11/18 04:29:18;;;;;;;1.20;0.80;;;5.90;99.90;;;;;;4129866;28;20198;-69
2022/11/18 04:31:18;;;;;;;0.40;0.40;;;5.80;99.90;;;;;;4129817;28;20194;-67
2022/11/18 04:33:19;;;;;;;0.30;0.30;;;6.00;99.90;;;;;;4129101;28;20721;-67
2022/11/18 04:35:20;;;;;;;0.83;0.40;;;6.10;99.90;;;;;;4129458;28;20184;-68
2022/11/18 04:37:20;;;;;;;0.50;0.50;;;6.20;99.90;;;;;;4128319;28;20217;-67
2022/11/18 04:39:21;;;;;;;1.60;0.30;;;6.20;99.90;;;;;;4128320;28;20198;-68
2022/11/18 04:41:54;;;;;;;1.23;0.60;;;6.20;99.90;;;;;;4129575;28;20276;-68
2022/11/18 04:43:42;;;;;;;0.70;0.60;;;6.20;99.90;;;;;;4128674;28;20217;-68
2022/11/18 04:45:43;;;;;;;0.83;0.80;;;6.00;99.90;;;;;;4129646;28;20814;-68
2022/11/18 04:47:44;;;;;;;0.60;0.60;;;5.90;99.90;;;;;;4129467;28;20244;-67
2022/11/18 04:49:44;;;;;;;0.50;0.50;;;6.00;99.90;;;;;;4129446;28;20202;-67
2022/11/18 04:51:46;;;;;;;0.63;0.50;;;5.80;99.90;;;;;;4129421;28;20195;-67
2022/11/18 04:53:46;;;;;;;2.53;0.60;;;5.80;99.90;;;;;;4127683;28;20218;-67
2022/11/18 04:55:47;;;;;;;0.60;0.40;;;5.80;99.90;;;;;;4129410;28;20441;-67
2022/11/18 04:57:48;;;;;;;1.23;0.77;;;5.80;99.90;;;;;;4129452;28;20186;-68
2022/11/18 04:59:48;;;;;;;1.47;1.00;;;6.00;99.90;;;;;;4129959;28;20183;-68
2022/11/18 05:01:50;;;;;;;0.90;0.67;;;6.20;99.90;;;;;;4131941;28;20201;-68
2022/11/18 05:03:50;;;;;;;1.43;0.80;;;6.30;99.90;;;;;;4130598;28;20649;-68
2022/11/18 05:05:51;;;;;;;0.87;0.80;;;6.30;99.90;;;;;;4132118;28;20433;-68
2022/11/18 05:07:52;;;;;;;0.87;0.70;;;6.40;99.90;;;;;;4132192;28;20197;-69
2022/11/18 05:09:52;;;;;;;1.37;0.70;;;6.40;99.90;;;;;;4132218;28;20197;-68
2022/11/18 05:14:13;;;;;;;0.83;0.80;;;6.40;99.90;;;;;;4132607;28;20213;-68
2022/11/18 05:16:13;;;;;;;0.87;0.83;;;6.40;99.90;;;;;;4137379;28;20771;-68
2022/11/18 05:18:14;;;;;;;0.80;0.70;;;6.30;99.90;;;;;;4133159;28;20452;-68
2022/11/18 05:20:15;;;;;;;1.10;0.73;;;6.40;99.90;;;;;;4131152;28;20178;-70
2022/11/18 05:22:16;;;;;;;0.60;0.60;;;6.50;99.90;;;;;;4132354;28;20349;-68
2022/11/18 05:24:17;;;;;;;1.40;0.80;;;6.60;99.90;;;;;;4131921;28;20469;-68
2022/11/18 05:26:18;;;;;;;1.33;1.07;;;6.70;99.90;;;;;;4131623;28;20175;-69
2022/11/18 05:28:18;;;;;;;1.03;0.87;;;6.70;99.90;;;;;;4114104;28;20191;-68
2022/11/18 05:30:19;;;;;;;6.23;2.67;;;6.70;99.90;;;;;;4130300;28;20179;-68
2022/11/18 05:32:20;;;;;;;8.67;4.90;;;6.50;99.90;;;;;;4131426;28;20217;-68
2022/11/18 05:34:21;;;;;;;5.20;3.00;;;6.40;99.90;;;;;;4130709;28;20260;-68
2022/11/18 05:36:21;;;;;;;1.73;1.23;;;6.30;99.90;;;;;;4130341;28;20175;-68
2022/11/18 05:38:22;;;;;;;1.00;0.80;;;6.20;99.90;;;;;;4131347;28;20245;-68
2022/11/18 05:40:23;;;;;;;1.60;1.10;;;6.00;99.90;;;;;;4113980;28;20178;-67
2022/11/18 05:44:43;;;;;;;3.33;1.70;;;5.80;99.90;;;;;;4131486;28;20193;-68
2022/11/18 05:46:43;;;;;;;1.10;1.00;;;5.80;99.90;;;;;;4130241;28;20484;-68
2022/11/18 05:48:44;;;;;;;1.33;1.03;;;5.80;99.90;;;;;;4131284;28;20840;-67
2022/11/18 05:50:50;;;;;;;1.10;0.60;;;5.70;99.90;;;;;;4129948;28;20189;-68
2022/11/18 05:52:51;;;;;;;2.53;1.30;;;5.60;99.90;;;;;;4129212;28;20202;-67
2022/11/18 05:54:51;;;;;;;0.70;0.70;;;5.50;99.90;;;;;;4129790;28;20422;-68
2022/11/18 05:56:52;;;;;;;3.27;3.17;;;5.50;99.90;;;;;;4128200;28;20198;-68
2022/11/18 05:58:54;;;;;;;0.50;0.50;;;5.40;99.90;;;;;;4099025;28;20188;-68
2022/11/18 06:01:01;;;;;;;0.40;0.40;;;5.40;99.90;;;;;;4113607;28;20190;-67
2022/11/18 06:03:08;;;;;;;0.40;0.40;;;5.40;99.90;;;;;;4113124;28;20959;-68
2022/11/18 06:05:10;;;;;;;0.70;0.70;;;5.40;99.90;;;;;;4113647;28;20973;-66
2022/11/18 06:07:25;;;;;;;0.40;0.40;;;5.40;99.90;;;;;;4113579;28;20442;-66
2022/11/18 06:09:31;;;;;;;0.50;0.50;;;5.40;99.90;;;;;;4126100;28;20512;-67
2022/11/18 06:11:40;;;;;;;0.50;0.50;;;5.40;99.90;;;;;;4124395;28;20976;-67
2022/11/18 06:13:58;;;;;;;0.60;0.60;;;5.50;99.90;;;;;;4118679;28;20551;-68
2022/11/18 06:15:59;;;;;;;0.50;0.50;;;5.50;99.90;;;;;;4130696;28;20429;-67
2022/11/18 06:18:11;;;;;;;0.60;0.60;;;5.50;99.90;;;;;;4129545;28;20953;-68
2022/11/18 06:20:12;;;;;;;3.20;0.90;;;5.40;99.90;;;;;;4129581;28;20185;-69
2022/11/18 06:22:13;;;;;;;0.57;0.57;;;5.30;99.90;;;;;;4130713;28;20513;-68
2022/11/18 06:24:15;;;;;;;0.63;0.63;;;5.40;99.90;;;;;;4128712;28;20460;-68
2022/11/18 06:26:16;;;;;;;1.80;0.60;;;5.40;99.90;;;;;;4129375;28;20961;-68
2022/11/18 06:28:18;;;;;;;0.50;0.50;;;5.30;99.90;;;;;;4129198;28;20429;-68
2022/11/18 06:30:18;;;;;;;0.40;0.40;;;5.30;99.90;;;;;;4129261;28;20422;-68
2022/11/18 06:32:19;;;;;;;0.90;0.90;;;5.30;99.90;;;;;;4129269;28;20965;-68
2022/11/18 06:34:20;;;;;;;0.53;0.53;;;5.20;99.90;;;;;;4129917;28;20743;-68
2022/11/18 06:36:20;;;;;;;0.40;0.40;;;5.20;99.90;;;;;;4130544;28;20189;-68
2022/11/18 06:38:24;;;;;;;1.03;1.03;;;5.20;99.90;;;;;;4130687;28;20236;-68
2022/11/18 06:40:24;;;;;;;0.60;0.60;;;5.20;99.90;;;;;;4129318;28;20183;-68
2022/11/18 06:44:46;;;;;;;0.80;0.80;;;5.10;99.90;;;;;;4130479;28;20221;-68
2022/11/18 06:46:56;;;;;;;0.40;0.40;;;5.10;99.90;;;;;;4130398;28;20421;-68
2022/11/18 06:48:58;;;;;;;2.83;2.63;;;5.10;99.90;;;;;;4130264;28;20192;-68
2022/11/18 06:50:58;;;;;;;0.83;0.77;;;5.10;99.90;;;;;;4128946;28;20557;-68
2022/11/18 06:53:00;;;;;;;0.90;0.90;;;5.20;99.90;;;;;;4129493;28;20500;-69
2022/11/18 06:55:01;;;;;;;2.20;0.70;;;5.20;99.90;;;;;;4128672;28;20566;-68
2022/11/18 06:57:01;;;;;;;1.90;1.23;;;5.20;99.90;;;;;;4128917;28;20484;-68
2022/11/18 06:59:02;;;;;;;1.33;0.60;;;5.30;99.90;;;;;;4130038;28;20717;-68
2022/11/18 07:01:20;;;;;;;3.17;3.07;;;5.40;99.90;;;;;;4128867;28;20662;-69
2022/11/18 07:03:21;;;;;;;3.03;0.90;;;5.40;99.90;;;;;;4128449;28;20229;-69
2022/11/18 07:05:21;;;;;;;1.03;0.80;;;5.40;99.90;;;;;;4128655;28;20473;-68
2022/11/18 07:07:22;;;;;;;0.60;0.60;;;5.40;99.90;;;;;;4130297;28;20190;-68
2022/11/18 07:09:23;;;;;;;0.80;0.70;;;5.40;99.90;;;;;;4130139;28;20847;-68
2022/11/18 07:11:25;;;;;;;1.00;1.00;;;5.50;99.90;;;;;;4128769;28;20189;-69
2022/11/18 07:13:26;;;;;;;0.83;0.83;;;5.50;99.90;;;;;;4129603;28;20214;-68
2022/11/18 07:15:27;;;;;;;0.50;0.50;;;5.50;99.90;;;;;;4130098;28;20452;-68
2022/11/18 07:17:29;;;;;;;1.27;0.50;;;5.50;99.90;;;;;;4130048;28;20206;-68
2022/11/18 07:19:30;;;;;;;0.50;0.50;;;5.60;99.90;;;;;;4139785;28;20205;-69
2022/11/18 07:21:31;;;;;;;0.63;0.50;;;5.60;99.90;;;;;;4143637;28;20919;-68
2022/11/18 07:23:33;;;;;;;0.53;0.53;;;5.70;99.90;;;;;;4129514;28;20686;-68
2022/11/18 07:25:34;;;;;;;0.53;0.50;;;5.50;99.90;;;;;;4128808;28;20186;-69
2022/11/18 07:27:34;;;;;;;0.97;0.97;;;5.60;99.90;;;;;;4128930;28;20884;-68
2022/11/18 07:29:35;;;;;;;0.40;0.40;;;5.50;99.90;;;;;;4128804;28;20187;-68
2022/11/18 07:31:37;;;;;;;0.40;0.40;;;5.50;99.90;;;;;;4128584;28;20186;-69
2022/11/18 07:33:40;;;;;;;1.13;0.93;;;5.60;99.90;;;;;;4111838;28;20286;-69
2022/11/18 07:35:41;;;;;;;1.00;0.80;;;5.60;99.90;;;;;;4128584;28;20434;-68
2022/11/18 07:37:42;;;;;;;0.50;0.50;;;5.60;99.90;;;;;;4129744;28;21259;-69
2022/11/18 07:39:43;;;;;;;0.73;0.60;;;5.70;99.90;;;;;;4128265;28;20438;-68
2022/11/18 07:41:43;;;;;;;0.37;0.37;;;5.70;99.90;;;;;;4112223;28;20182;-68
2022/11/18 07:43:44;;;;;;;0.50;0.50;;;5.70;99.90;;;;;;4129056;28;20480;-68
2022/11/18 07:45:45;;;;;;;0.50;0.50;;;5.60;99.90;;;;;;4128382;28;20201;-68
2022/11/18 07:47:46;;;;;;;0.40;0.40;;;5.60;99.90;;;;;;4129646;28;20441;-68
2022/11/18 07:49:46;;;;;;;0.70;0.70;;;5.80;99.90;;;;;;4128496;28;20273;-67
2022/11/18 07:51:47;;;;;;;0.90;0.50;;;5.80;99.90;;;;;;4128463;28;20216;-68
2022/11/18 07:53:48;;;;;;;1.27;1.00;;;5.70;99.90;;;;;;4129141;28;20217;-68
2022/11/18 07:55:49;;;;;;;0.83;0.83;;;5.80;99.90;;;;;;4129571;28;20220;-68
2022/11/18 07:57:50;;;;;;;0.63;0.63;;;5.90;99.90;;;;;;4124385;28;20425;-68
2022/11/18 07:59:50;;;;;;;0.67;0.40;;;6.00;99.90;;;;;;4128352;28;20232;-68
2022/11/18 08:01:51;;;;;;;2.10;1.10;;;6.10;99.90;;;;;;4113505;28;20209;-68
2022/11/18 08:03:52;;;;;;;0.70;0.70;;;6.10;99.90;;;;;;4112753;28;20207;-68
2022/11/18 08:06:03;;;;;;;0.60;0.60;;;6.00;99.90;;;;;;4113587;28;20234;-69
2022/11/18 08:08:04;;;;;;;0.60;0.60;;;5.90;99.90;;;;;;4128314;28;20193;-68
2022/11/18 08:10:05;;;;;;;0.80;0.80;;;6.00;99.90;;;;;;4113524;28;20437;-69
2022/11/18 08:12:06;;;;;;;0.77;0.60;;;5.90;99.90;;;;;;4129412;28;20189;-68
2022/11/18 08:14:06;;;;;;;0.77;0.50;;;5.90;99.90;;;;;;4128733;28;20445;-68
2022/11/18 08:16:20;;;;;;;0.83;0.60;;;5.90;99.90;;;;;;4128501;28;20604;-68
2022/11/18 08:18:21;;;;;;;0.70;0.70;;;5.90;99.90;;;;;;4129596;28;20192;-69
2022/11/18 08:20:26;;;;;;;1.03;0.87;;;5.80;99.90;;;;;;4129395;28;20425;-69
2022/11/18 08:22:26;;;;;;;1.10;0.90;;;5.80;99.90;;;;;;4128210;28;20453;-68
2022/11/18 08:24:27;;;;;;;0.93;0.70;;;5.80;99.90;;;;;;4111420;28;21006;-68
2022/11/18 08:26:28;;;;;;;0.80;0.80;;;5.90;99.90;;;;;;4129314;28;20184;-69
2022/11/18 08:28:29;;;;;;;1.20;1.10;;;5.80;99.90;;;;;;4128186;28;20665;-68
2022/11/18 08:30:29;;;;;;;1.23;0.90;;;5.80;99.90;;;;;;4128025;28;20444;-68
2022/11/18 08:32:30;;;;;;;0.90;0.70;;;5.60;99.90;;;;;;4129907;28;20198;-68
2022/11/18 08:34:31;;;;;;;1.07;0.87;;;5.70;99.90;;;;;;4111768;28;20199;-69
2022/11/18 08:36:35;;;;;;;2.00;1.60;;;5.70;99.90;;;;;;4131158;28;20422;-68
2022/11/18 08:38:36;;;;;;;2.80;1.77;;;5.90;99.90;;;;;;4132177;28;20242;-69
2022/11/18 08:40:38;;;;;;;1.47;0.90;;;5.80;99.90;;;;;;4132160;28;20476;-68
2022/11/18 08:42:39;;;;;;;1.30;1.10;;;5.90;99.90;;;;;;4130510;28;20213;-68
2022/11/18 08:44:40;;;;;;;0.80;0.80;;;5.90;99.90;;;;;;4131257;28;20447;-68
2022/11/18 08:46:44;;;;;;;0.70;0.70;;;5.90;99.90;;;;;;4132479;28;20192;-68
2022/11/18 08:48:45;;;;;;;1.40;1.10;;;5.90;99.90;;;;;;4131189;28;20189;-67
2022/11/18 08:50:45;;;;;;;1.73;0.80;;;6.10;99.90;;;;;;4132481;28;20553;-68
2022/11/18 08:52:46;;;;;;;1.40;0.93;;;6.20;99.90;;;;;;4130436;28;20334;-68
2022/11/18 08:54:47;;;;;;;0.77;0.70;;;6.30;99.90;;;;;;4132482;28;20208;-68
2022/11/18 08:56:49;;;;;;;1.10;1.00;;;6.20;99.90;;;;;;4132457;28;20186;-67
2022/11/18 08:58:51;;;;;;;0.50;0.50;;;6.20;99.90;;;;;;4124769;28;20620;-69
2022/11/18 09:00:51;;;;;;;0.40;0.40;;;6.20;99.90;;;;;;4130636;28;20429;-67
2022/11/18 09:02:52;;;;;;;0.67;0.67;;;6.20;99.90;;;;;;4130031;28;20201;-69
2022/11/18 09:04:53;;;;;;;1.53;1.00;;;6.30;99.90;;;;;;4130786;28;20182;-68
2022/11/18 09:06:53;;;;;;;2.60;1.00;;;6.30;99.90;;;;;;4130439;28;20178;-68
2022/11/18 09:08:54;;;;;;;0.90;0.90;;;6.50;99.90;;;;;;4130417;28;20178;-68
2022/11/18 09:10:55;;;;;;;1.03;0.70;;;6.50;99.90;;;;;;4130352;28;20240;-70
2022/11/18 09:12:56;;;;;;;0.67;0.67;;;6.40;99.90;;;;;;4129418;28;20218;-68
2022/11/18 09:14:56;;;;;;;1.47;0.90;;;6.40;99.90;;;;;;4130321;28;20189;-69
2022/11/18 09:16:57;;;;;;;0.70;0.70;;;6.40;99.90;;;;;;4130075;28;20217;-69
2022/11/18 09:18:58;;;;;;;3.53;3.33;;;6.20;99.90;;;;;;4131100;28;20179;-68
2022/11/18 09:21:05;;;;;;;0.83;0.60;;;6.10;99.90;;;;;;4114378;28;20180;-69
2022/11/18 09:23:06;;;;;;;0.73;0.63;;;6.20;99.90;;;;;;4139175;28;20452;-67
2022/11/18 09:25:08;;;;;;;0.70;0.70;;;6.20;99.90;;;;;;4148328;28;20435;-68
2022/11/18 09:27:08;;;;;;;0.70;0.70;;;6.20;99.90;;;;;;4130230;28;20429;-68
2022/11/18 09:29:10;;;;;;;0.50;0.50;;;6.30;99.90;;;;;;4131918;28;20516;-69
2022/11/18 09:31:14;;;;;;;1.63;1.10;;;6.40;99.90;;;;;;4133281;28;20182;-68
2022/11/18 09:33:15;;;;;;;0.70;0.70;;;6.30;99.90;;;;;;4131396;28;20980;-68
2022/11/18 09:35:16;;;;;;;1.73;1.00;;;6.20;99.90;;;;;;4132039;28;20429;-69
2022/11/18 09:37:17;;;;;;;0.77;0.77;;;6.30;99.90;;;;;;4132043;28;20424;-69
2022/11/18 09:39:17;;;;;;;0.60;0.60;;;6.50;99.90;;;;;;4131743;28;20682;-69
2022/11/18 09:41:44;;;;;;;0.90;0.73;;;6.50;99.90;;;;;;4131884;28;20189;-69
2022/11/18 09:44:16;;;;;;;0.67;0.67;;;6.60;99.90;;;;;;4113835;28;20211;-68
2022/11/18 09:46:43;;;;;;;1.33;0.70;;;6.80;99.90;;;;;;4130057;28;20190;-69
2022/11/18 09:51:04;;;;;;;0.50;0.50;;;6.60;99.90;;;;;;4131914;28;20494;-70
2022/11/18 09:53:24;;;;;;;1.53;0.60;;;6.40;99.90;;;;;;4113638;28;20221;-67
2022/11/18 09:55:24;;;;;;;0.50;0.50;;;6.50;99.90;;;;;;4129788;28;20519;-68
2022/11/18 09:57:36;;;;;;;0.67;0.67;;;6.60;99.90;;;;;;4115605;28;21005;-69
2022/11/18 09:59:37;;;;;;;1.07;0.60;;;6.80;99.90;;;;;;4115280;28;20183;-69
2022/11/18 10:01:38;;;;;;;0.60;0.60;;;6.90;99.90;;;;;;4115427;28;20559;-69
2022/11/18 10:03:39;;;;;;;2.53;0.77;;;7.00;99.90;;;;;;4114813;28;20250;-69
2022/11/18 10:06:18;;;;;;;0.83;0.83;;;7.10;99.90;;;;;;4130279;28;20192;-68
2022/11/18 10:08:31;;;;;;;0.97;0.60;;;7.10;99.90;;;;;;4113843;28;20230;-69
2022/11/18 10:11:09;;;;;;;0.83;0.70;;;7.20;99.90;;;;;;4130235;28;20190;-69
2022/11/18 10:13:23;;;;;;;0.40;0.40;;;7.40;99.90;;;;;;4114345;28;20313;-68
2022/11/18 10:15:43;;;;;;;0.60;0.60;;;7.50;99.90;;;;;;4115192;28;20266;-69
2022/11/18 10:18:25;;;;;;;0.70;0.70;;;7.70;99.90;;;;;;4113671;28;20175;-69
2022/11/18 10:20:50;;;;;;;1.50;1.40;;;7.70;99.90;;;;;;4114111;28;20199;-69
2022/11/18 10:23:04;;;;;;;0.60;0.60;;;7.60;99.90;;;;;;4113144;28;20214;-69
2022/11/18 10:25:13;;;;;;;1.67;0.77;;;7.20;99.90;;;;;;4129702;28;20197;-69
2022/11/18 10:27:15;;;;;;;0.47;0.47;;;7.00;99.90;;;;;;4129497;28;20433;-68
2022/11/18 10:29:16;;;;;;;1.43;0.60;;;6.70;99.90;;;;;;4113302;28;20430;-69
2022/11/18 10:31:16;;;;;;;0.50;0.50;;;6.50;99.90;;;;;;4113438;28;20427;-68
2022/11/18 10:33:28;;;;;;;0.50;0.50;;;6.50;99.90;;;;;;4096717;29;20222;-69
2022/11/18 10:35:36;;;;;;;0.83;0.80;;;6.50;99.90;;;;;;4113272;28;20198;-69
2022/11/18 10:37:37;;;;;;;0.57;0.50;;;6.40;99.90;;;;;;4113303;28;20429;-68
2022/11/18 10:39:53;;;;;;;0.80;0.60;;;6.20;99.90;;;;;;4113155;28;20290;-68
2022/11/18 10:42:05;;;;;;;0.63;0.63;;;6.30;99.90;;;;;;4113142;28;20965;-68
2022/11/18 10:44:33;;;;;;;0.47;0.47;;;6.10;99.90;;;;;;4113940;28;20827;-69
2022/11/18 10:46:38;;;;;;;0.63;0.63;;;6.10;99.90;;;;;;4113070;28;20470;-68
2022/11/18 10:48:39;;;;;;;0.50;0.50;;;6.10;99.90;;;;;;4112998;28;20489;-68
2022/11/18 10:50:49;;;;;;;1.20;0.60;;;6.00;99.90;;;;;;4097059;29;20435;-69
2022/11/18 10:52:52;;;;;;;0.80;0.80;;;5.90;99.90;;;;;;4096545;28;20211;-69
2022/11/18 10:55:21;;;;;;;0.70;0.70;;;5.80;99.90;;;;;;4113168;28;20430;-68
2022/11/18 10:57:24;;;;;;;1.03;0.70;;;5.90;99.90;;;;;;4128337;28;20430;-68
2022/11/18 10:59:33;;;;;;;0.83;0.83;;;6.20;99.90;;;;;;4113135;28;20430;-69
2022/11/18 11:01:34;;;;;;;1.17;0.70;;;6.70;99.90;;;;;;4114208;28;20429;-69
2022/11/18 11:03:37;;;;;;;0.83;0.60;;;6.90;99.90;;;;;;4112153;28;20223;-68
2022/11/18 11:05:38;;;;;;;2.63;0.70;;;6.80;99.90;;;;;;4096814;28;20197;-69
2022/11/18 11:07:39;;;;;;;0.93;0.80;;;6.70;99.90;;;;;;4114074;28;20881;-69
2022/11/18 11:09:40;;;;;;;0.70;0.70;;;6.60;99.90;;;;;;4114083;28;20186;-69
2022/11/18 11:12:14;;;;;;;0.50;0.50;;;6.40;99.90;;;;;;4113952;28;20198;-69
2022/11/18 11:14:31;;;;;;;0.93;0.70;;;6.30;99.90;;;;;;4111987;28;20226;-69
2022/11/18 11:16:44;;;;;;;0.50;0.50;;;6.30;99.90;;;;;;4112793;28;20432;-69